createdAt,value
2023-05-22T00:00:13.536Z,15.40
2023-05-22T00:02:43.863Z,15.30
2023-05-22T00:05:14.526Z,15.20
2023-05-22T00:07:44.297Z,15.10
2023-05-22T00:10:13.562Z,15.00
2023-05-22T00:12:42.709Z,15.00
2023-05-22T00:15:12.064Z,14.90
2023-05-22T00:17:42.315Z,14.80
2023-05-22T00:20:11.957Z,14.70
2023-05-22T00:22:41.116Z,14.70
2023-05-22T00:25:11.353Z,14.70
2023-05-22T00:27:40.510Z,14.60
2023-05-22T00:30:10.435Z,14.60
2023-05-22T00:32:39.953Z,14.60
2023-05-22T00:35:09.635Z,14.50
2023-05-22T00:37:38.707Z,14.50
2023-05-22T00:40:08.673Z,14.50
2023-05-22T00:42:37.848Z,14.40
2023-05-22T00:45:08.154Z,14.30
2023-05-22T00:47:37.653Z,14.30
2023-05-22T00:50:07.988Z,14.30
2023-05-22T00:52:40.000Z,14.30
2023-05-22T00:55:10.397Z,14.20
2023-05-22T00:57:42.881Z,14.20
2023-05-22T01:00:15.185Z,14.10
2023-05-22T01:02:44.530Z,14.10
2023-05-22T01:05:18.293Z,14.10
2023-05-22T01:07:47.667Z,14.00
2023-05-22T01:10:16.802Z,14.00
2023-05-22T01:12:55.020Z,13.90
2023-05-22T01:15:37.137Z,13.90
2023-05-22T01:18:25.184Z,13.80
2023-05-22T01:21:04.314Z,13.80
2023-05-22T01:23:49.842Z,13.70
2023-05-22T01:26:43.219Z,13.70
2023-05-22T01:29:23.685Z,13.70
2023-05-22T01:31:55.654Z,13.60
2023-05-22T01:34:26.995Z,13.70
2023-05-22T01:36:57.377Z,13.60
2023-05-22T01:39:28.782Z,13.60
2023-05-22T01:41:58.382Z,13.60
2023-05-22T01:44:27.480Z,13.60
2023-05-22T01:47:00.606Z,13.60
2023-05-22T01:49:29.713Z,13.50
2023-05-22T01:52:10.091Z,13.50
2023-05-22T01:54:52.826Z,13.50
2023-05-22T01:57:30.844Z,13.50
2023-05-22T02:00:09.807Z,13.50
2023-05-22T02:03:00.624Z,13.50
2023-05-22T02:05:33.438Z,13.60
2023-05-22T02:08:04.159Z,13.60
2023-05-22T02:10:35.291Z,13.60
2023-05-22T02:13:04.766Z,13.60
2023-05-22T02:15:33.991Z,13.60
2023-05-22T02:18:03.387Z,13.60
2023-05-22T02:20:32.557Z,13.60
2023-05-22T02:23:01.705Z,13.60
2023-05-22T02:25:32.177Z,13.60
2023-05-22T02:28:01.897Z,13.50
2023-05-22T02:30:31.033Z,13.50
2023-05-22T02:33:00.414Z,13.40
2023-05-22T02:35:29.574Z,13.30
2023-05-22T02:37:58.769Z,13.20
2023-05-22T02:40:28.138Z,13.20
2023-05-22T02:42:57.277Z,13.10
2023-05-22T02:45:26.605Z,13.10
2023-05-22T02:47:55.927Z,13.10
2023-05-22T02:50:25.070Z,13.10
2023-05-22T02:52:54.139Z,13.10
2023-05-22T02:55:23.236Z,13.10
2023-05-22T02:57:52.300Z,13.10
2023-05-22T03:00:22.402Z,13.20
2023-05-22T03:02:53.991Z,13.20
2023-05-22T03:05:23.215Z,13.30
2023-05-22T03:07:53.979Z,13.30
2023-05-22T03:10:23.147Z,13.40
2023-05-22T03:12:52.221Z,13.40
2023-05-22T03:15:21.693Z,13.40
2023-05-22T03:17:53.219Z,13.40
2023-05-22T03:20:22.600Z,13.40
2023-05-22T03:22:51.693Z,13.40
2023-05-22T03:25:22.007Z,13.40
2023-05-22T03:27:51.607Z,13.40
2023-05-22T03:30:20.916Z,13.50
2023-05-22T03:33:01.245Z,13.60
2023-05-22T03:35:30.523Z,13.70
2023-05-22T03:37:59.816Z,13.70
2023-05-22T03:40:28.952Z,13.80
2023-05-22T03:42:58.438Z,13.90
2023-05-22T03:45:27.548Z,13.90
2023-05-22T03:47:56.767Z,13.90
2023-05-22T03:50:26.606Z,13.80
2023-05-22T03:52:55.772Z,13.80
2023-05-22T03:55:24.925Z,13.90
2023-05-22T03:57:54.056Z,14.00
2023-05-22T04:00:24.237Z,14.00
2023-05-22T04:02:54.937Z,14.10
2023-05-22T04:05:26.624Z,14.10
2023-05-22T04:07:55.993Z,14.10
2023-05-22T04:10:25.639Z,14.20
2023-05-22T04:12:54.827Z,14.20
2023-05-22T04:15:24.195Z,14.30
2023-05-22T04:17:54.727Z,14.40
2023-05-22T04:20:23.923Z,14.50
2023-05-22T04:22:54.498Z,14.60
2023-05-22T04:25:23.640Z,14.70
2023-05-22T04:27:55.015Z,14.80
2023-05-22T04:30:25.772Z,14.90
2023-05-22T04:32:55.099Z,15.00
2023-05-22T04:35:24.699Z,15.10
2023-05-22T04:37:53.813Z,15.20
2023-05-22T04:40:23.239Z,15.30
2023-05-22T04:42:54.317Z,15.40
2023-05-22T04:45:25.395Z,15.40
2023-05-22T04:47:54.957Z,15.60
2023-05-22T04:50:25.022Z,15.80
2023-05-22T04:52:54.176Z,16.00
2023-05-22T04:55:23.370Z,16.10
2023-05-22T04:57:52.907Z,16.20
2023-05-22T05:00:26.469Z,16.40
2023-05-22T05:02:57.517Z,16.50
2023-05-22T05:05:27.130Z,16.50
2023-05-22T05:07:56.823Z,16.50
2023-05-22T05:10:26.104Z,16.60
2023-05-22T05:14:30.460Z,16.60
2023-05-22T05:16:59.620Z,16.80
2023-05-22T05:19:28.878Z,16.90
2023-05-22T05:21:58.128Z,17.00
2023-05-22T05:24:27.602Z,17.20
2023-05-22T05:26:57.386Z,17.30
2023-05-22T05:29:27.140Z,17.40
2023-05-22T05:32:08.273Z,17.40
2023-05-22T05:34:43.385Z,17.50
2023-05-22T05:37:26.162Z,17.60
2023-05-22T05:39:58.447Z,17.60
2023-05-22T05:42:27.587Z,17.70
2023-05-22T05:44:59.782Z,17.90
2023-05-22T05:47:32.493Z,17.90
2023-05-22T05:50:01.669Z,18.10
2023-05-22T05:52:34.237Z,18.20
2023-05-22T05:55:09.034Z,18.40
2023-05-22T05:57:38.208Z,18.40
2023-05-22T06:00:11.730Z,18.50
2023-05-22T06:02:44.026Z,18.60
2023-05-22T06:05:36.080Z,18.70
2023-05-22T06:08:16.891Z,18.90
2023-05-22T06:10:47.010Z,19.00
2023-05-22T06:13:18.660Z,19.20
2023-05-22T06:15:48.498Z,19.30
2023-05-22T06:18:18.127Z,19.40
2023-05-22T06:20:47.282Z,19.50
2023-05-22T06:23:16.542Z,19.70
2023-05-22T06:25:46.619Z,19.90
2023-05-22T06:28:16.383Z,20.00
2023-05-22T06:30:45.829Z,20.10
2023-05-22T06:33:19.914Z,20.30
2023-05-22T06:35:49.199Z,20.40
2023-05-22T06:38:19.220Z,20.50
2023-05-22T06:40:48.421Z,20.60
2023-05-22T06:43:24.218Z,20.80
2023-05-22T06:45:57.655Z,21.00
2023-05-22T06:48:45.267Z,21.10
2023-05-22T06:51:20.955Z,21.20
2023-05-22T06:53:53.652Z,21.20
2023-05-22T06:56:26.737Z,21.20
2023-05-22T06:59:06.425Z,21.30
2023-05-22T07:01:53.762Z,21.50
2023-05-22T07:04:33.114Z,21.50
2023-05-22T07:07:04.931Z,21.50
2023-05-22T07:09:35.168Z,21.50
2023-05-22T07:12:06.604Z,21.60
2023-05-22T07:14:36.177Z,21.60
2023-05-22T07:17:05.836Z,21.60
2023-05-22T07:19:40.469Z,21.70
2023-05-22T07:22:09.594Z,21.80
2023-05-22T07:24:40.937Z,21.90
2023-05-22T07:27:11.387Z,21.90
2023-05-22T07:29:41.062Z,22.10
2023-05-22T07:32:11.300Z,22.30
2023-05-22T07:34:40.562Z,22.20
2023-05-22T07:37:12.040Z,22.20
2023-05-22T07:39:42.418Z,22.30
2023-05-22T07:42:14.691Z,22.40
2023-05-22T07:44:50.807Z,22.20
2023-05-22T07:47:21.625Z,22.00
2023-05-22T07:49:51.752Z,22.10
2023-05-22T07:52:21.877Z,22.30
2023-05-22T07:54:52.394Z,22.30
2023-05-22T07:57:23.073Z,22.40
2023-05-22T07:59:53.638Z,22.40
2023-05-22T08:02:23.224Z,22.50
2023-05-22T08:04:52.467Z,22.60
2023-05-22T08:07:21.637Z,22.60
2023-05-22T08:09:50.801Z,22.60
2023-05-22T08:12:19.917Z,22.50
2023-05-22T08:14:49.021Z,22.50
2023-05-22T08:17:18.219Z,22.60
2023-05-22T08:19:47.418Z,22.70
2023-05-22T08:22:16.705Z,22.80
2023-05-22T08:24:45.921Z,22.90
2023-05-22T08:27:15.062Z,23.00
2023-05-22T08:29:44.211Z,23.00
2023-05-22T08:32:13.337Z,23.10
2023-05-22T08:34:42.906Z,23.20
2023-05-22T08:37:14.115Z,23.30
2023-05-22T08:39:43.674Z,23.40
2023-05-22T08:42:13.239Z,23.50
2023-05-22T08:44:42.678Z,23.60
2023-05-22T08:47:14.137Z,23.80
2023-05-22T08:49:44.073Z,23.80
2023-05-22T08:52:18.942Z,23.90
2023-05-22T08:54:54.272Z,24.00
2023-05-22T08:57:23.882Z,24.00
2023-05-22T08:59:53.180Z,24.10
2023-05-22T09:02:22.947Z,24.20
2023-05-22T09:04:52.639Z,24.30
2023-05-22T09:07:22.220Z,24.30
2023-05-22T09:09:51.313Z,24.40
2023-05-22T09:12:20.455Z,24.40
2023-05-22T09:14:49.834Z,24.50
2023-05-22T09:17:21.089Z,24.60
2023-05-22T09:19:50.207Z,24.70
2023-05-22T09:22:19.934Z,24.80
2023-05-22T09:24:50.019Z,24.80
2023-05-22T09:27:23.144Z,24.90
2023-05-22T09:29:53.716Z,24.90
2023-05-22T09:32:23.511Z,25.00
2023-05-22T09:34:52.696Z,25.10
2023-05-22T09:37:22.198Z,25.20
2023-05-22T09:39:54.479Z,25.30
2023-05-22T09:42:25.168Z,25.30
2023-05-22T09:44:54.254Z,25.40
2023-05-22T09:47:24.042Z,25.50
2023-05-22T09:49:53.284Z,25.60
2023-05-22T09:52:24.250Z,25.70
2023-05-22T09:54:56.712Z,25.80
2023-05-22T09:57:28.955Z,25.90
2023-05-22T09:59:59.267Z,25.90
2023-05-22T10:02:30.421Z,26.10
2023-05-22T10:05:00.825Z,26.20
2023-05-22T10:07:34.397Z,26.20
2023-05-22T10:10:12.237Z,26.20
2023-05-22T10:13:08.083Z,26.30
2023-05-22T10:15:38.312Z,26.40
2023-05-22T10:18:07.721Z,26.60
2023-05-22T10:20:37.270Z,26.80
2023-05-22T10:23:06.999Z,27.00
2023-05-22T10:25:38.719Z,27.00
2023-05-22T10:28:08.879Z,27.00
2023-05-22T10:30:41.424Z,27.00
2023-05-22T10:33:34.531Z,27.00
2023-05-22T10:36:38.352Z,27.00
2023-05-22T10:39:24.364Z,27.20
2023-05-22T10:41:54.060Z,27.30
2023-05-22T10:44:24.225Z,27.40
2023-05-22T10:46:53.441Z,27.60
2023-05-22T10:49:23.842Z,27.90
2023-05-22T10:51:57.329Z,28.10
2023-05-22T10:54:39.249Z,28.20
2023-05-22T10:57:16.225Z,28.50
2023-05-22T10:59:48.371Z,28.80
2023-05-22T11:02:42.642Z,29.00
2023-05-22T11:05:19.527Z,29.30
2023-05-22T11:07:49.879Z,29.40
2023-05-22T11:10:55.011Z,29.50
2023-05-22T11:13:28.223Z,29.80
2023-05-22T11:15:58.441Z,30.00
2023-05-22T11:18:29.753Z,30.00
2023-05-22T11:21:00.867Z,29.90
2023-05-22T11:23:33.817Z,29.90
2023-05-22T11:26:25.317Z,29.90
2023-05-22T11:28:56.777Z,30.10
2023-05-22T11:31:27.108Z,29.90
2023-05-22T11:33:56.388Z,29.60
2023-05-22T11:36:27.752Z,29.60
2023-05-22T11:39:00.238Z,29.40
2023-05-22T11:41:34.239Z,29.30
2023-05-22T11:44:07.789Z,29.50
2023-05-22T11:46:38.955Z,29.70
2023-05-22T11:49:12.406Z,29.70
2023-05-22T11:51:42.069Z,29.50
2023-05-22T11:54:11.926Z,29.50
2023-05-22T11:56:41.804Z,29.20
2023-05-22T11:59:10.931Z,29.10
2023-05-22T12:01:39.985Z,29.30
2023-05-22T12:04:09.183Z,29.70
2023-05-22T12:06:38.370Z,30.30
2023-05-22T12:09:08.889Z,30.50
2023-05-22T12:11:38.074Z,30.90
2023-05-22T12:14:11.476Z,31.40
2023-05-22T12:16:40.702Z,31.30
2023-05-22T12:19:10.995Z,31.10
2023-05-22T12:21:42.070Z,30.90
2023-05-22T12:24:11.541Z,30.20
2023-05-22T12:26:40.801Z,29.40
2023-05-22T12:29:09.952Z,28.70
2023-05-22T12:31:39.270Z,27.90
2023-05-22T12:34:08.766Z,26.80
2023-05-22T12:36:42.802Z,23.90
2023-05-22T12:39:17.863Z,22.20
2023-05-22T12:41:47.053Z,21.50
2023-05-22T12:44:16.489Z,21.30
2023-05-22T12:46:45.693Z,21.00
2023-05-22T12:49:15.148Z,20.70
2023-05-22T12:51:44.287Z,20.60
2023-05-22T12:54:15.392Z,20.60
2023-05-22T12:56:44.512Z,20.30
2023-05-22T12:59:13.556Z,19.80
2023-05-22T13:01:42.813Z,19.50
2023-05-22T13:04:11.951Z,19.30
2023-05-22T13:06:41.097Z,19.20
2023-05-22T13:09:10.168Z,18.90
2023-05-22T13:11:39.833Z,18.80
2023-05-22T13:14:08.950Z,18.10
2023-05-22T13:16:38.217Z,17.50
2023-05-22T13:19:07.423Z,16.90
2023-05-22T13:21:36.911Z,16.60
2023-05-22T13:24:06.139Z,16.50
2023-05-22T13:26:35.238Z,16.40
2023-05-22T13:29:04.445Z,16.50
2023-05-22T13:31:37.460Z,16.40
2023-05-22T13:34:06.896Z,16.40
2023-05-22T13:36:36.015Z,16.40
2023-05-22T13:39:05.148Z,16.50
2023-05-22T13:41:34.298Z,16.50
2023-05-22T13:44:03.454Z,16.70
2023-05-22T13:46:32.715Z,16.90
2023-05-22T13:49:01.948Z,17.00
2023-05-22T13:51:31.207Z,17.30
2023-05-22T13:54:00.785Z,17.60
2023-05-22T13:56:29.870Z,17.80
2023-05-22T13:58:59.330Z,18.10
2023-05-22T14:01:28.492Z,18.50
2023-05-22T14:03:58.053Z,19.30
2023-05-22T14:06:27.719Z,20.60
2023-05-22T14:08:57.343Z,21.10
2023-05-22T14:11:27.451Z,21.50
2023-05-22T14:13:56.673Z,22.10
2023-05-22T14:16:25.885Z,22.80
2023-05-22T14:18:55.164Z,27.40
2023-05-22T14:21:24.303Z,28.00
2023-05-22T14:23:53.500Z,26.50
2023-05-22T14:26:24.226Z,25.20
2023-05-22T14:28:54.020Z,24.00
2023-05-22T14:31:23.321Z,22.90
2023-05-22T14:33:52.462Z,22.20
2023-05-22T14:36:21.631Z,21.70
2023-05-22T14:38:50.910Z,21.30
2023-05-22T14:41:20.032Z,20.90
2023-05-22T14:43:49.130Z,20.50
2023-05-22T14:46:18.287Z,20.10
2023-05-22T14:48:47.465Z,19.70
2023-05-22T14:51:20.221Z,19.30
2023-05-22T14:53:49.860Z,19.10
2023-05-22T14:56:19.268Z,18.90
2023-05-22T14:58:48.474Z,18.70
2023-05-22T15:01:17.636Z,18.60
2023-05-22T15:03:47.383Z,18.50
2023-05-22T15:06:17.684Z,18.40
2023-05-22T15:08:46.849Z,18.30
2023-05-22T15:11:16.087Z,18.30
2023-05-22T15:13:45.338Z,18.20
2023-05-22T15:16:14.531Z,18.20
2023-05-22T15:18:43.731Z,18.10
2023-05-22T15:21:13.066Z,18.10
2023-05-22T15:23:42.333Z,18.00
2023-05-22T15:26:11.490Z,18.00
2023-05-22T15:28:41.006Z,18.00
2023-05-22T15:31:10.709Z,18.10
2023-05-22T15:33:39.835Z,18.10
2023-05-22T15:36:09.000Z,18.20
2023-05-22T15:38:38.131Z,18.30
2023-05-22T15:41:07.266Z,18.30
2023-05-22T15:43:36.385Z,18.30
2023-05-22T15:46:05.744Z,18.30
2023-05-22T15:48:34.837Z,18.40
2023-05-22T15:51:06.407Z,18.50
2023-05-22T15:53:35.593Z,18.50
2023-05-22T15:56:05.550Z,18.60
2023-05-22T15:58:35.006Z,18.70
2023-05-22T16:01:04.158Z,18.80
2023-05-22T16:03:33.408Z,18.70
2023-05-22T16:06:02.686Z,18.80
2023-05-22T16:08:31.771Z,19.00
2023-05-22T16:11:01.748Z,19.10
2023-05-22T16:13:31.134Z,19.30
2023-05-22T16:16:00.258Z,19.40
2023-05-22T16:18:29.360Z,19.60
2023-05-22T16:20:58.561Z,19.70
2023-05-22T16:23:27.656Z,19.70
2023-05-22T16:25:56.734Z,19.80
2023-05-22T16:28:25.965Z,19.80
2023-05-22T16:30:55.107Z,19.80
2023-05-22T16:33:24.182Z,19.80
2023-05-22T16:35:53.359Z,20.00
2023-05-22T16:38:22.511Z,20.10
2023-05-22T16:40:52.984Z,20.40
2023-05-22T16:43:22.150Z,20.80
2023-05-22T16:45:51.563Z,21.20
2023-05-22T16:48:20.871Z,21.40
2023-05-22T16:50:50.114Z,21.40
2023-05-22T16:53:19.640Z,21.40
2023-05-22T16:55:48.846Z,21.40
2023-05-22T16:58:18.165Z,21.40
2023-05-22T17:00:47.606Z,21.30
2023-05-22T17:03:16.887Z,21.30
2023-05-22T17:05:47.523Z,21.30
2023-05-22T17:08:17.167Z,21.20
2023-05-22T17:10:46.304Z,20.90
2023-05-22T17:13:20.851Z,20.60
2023-05-22T17:15:51.382Z,20.40
2023-05-22T17:18:21.395Z,20.10
2023-05-22T17:20:51.771Z,19.80
2023-05-22T17:23:20.945Z,19.60
2023-05-22T17:25:50.867Z,19.50
2023-05-22T17:28:20.063Z,19.40
2023-05-22T17:30:49.307Z,19.20
2023-05-22T17:33:18.485Z,19.20
2023-05-22T17:35:47.880Z,19.00
2023-05-22T17:38:17.463Z,18.90
2023-05-22T17:40:46.631Z,18.80
2023-05-22T17:43:16.716Z,18.70
2023-05-22T17:45:49.926Z,18.50
2023-05-22T17:48:27.010Z,18.40
2023-05-22T17:50:56.336Z,18.30
2023-05-22T17:53:26.502Z,18.20
2023-05-22T17:55:55.685Z,17.90
2023-05-22T17:58:24.995Z,17.90
2023-05-22T18:00:54.164Z,17.80
2023-05-22T18:03:23.614Z,17.70
2023-05-22T18:05:52.808Z,17.60
2023-05-22T18:08:22.000Z,17.50
2023-05-22T18:10:51.392Z,17.30
2023-05-22T18:13:20.554Z,17.20
2023-05-22T18:15:51.405Z,17.10
2023-05-22T18:18:22.652Z,16.90
2023-05-22T18:20:51.961Z,16.80
2023-05-22T18:23:21.457Z,16.70
2023-05-22T18:25:51.187Z,16.60
2023-05-22T18:28:26.342Z,16.30
2023-05-22T18:30:55.768Z,16.10
2023-05-22T18:33:24.962Z,15.90
2023-05-22T18:35:54.113Z,15.80
2023-05-22T18:38:24.466Z,15.80
2023-05-22T18:40:53.825Z,15.60
2023-05-22T18:43:27.790Z,15.60
2023-05-22T18:46:00.523Z,15.50
2023-05-22T18:48:30.966Z,15.40
2023-05-22T18:51:00.841Z,15.30
2023-05-22T18:53:31.542Z,15.30
2023-05-22T18:56:00.909Z,15.20
2023-05-22T18:58:30.154Z,15.10
2023-05-22T19:00:59.907Z,15.00
2023-05-22T19:03:29.094Z,15.00
2023-05-22T19:05:58.263Z,14.90
2023-05-22T19:08:27.579Z,14.90
2023-05-22T19:10:58.443Z,14.80
2023-05-22T19:13:27.631Z,14.80
2023-05-22T19:15:57.401Z,14.80
2023-05-22T19:18:28.410Z,14.80
2023-05-22T19:20:57.644Z,14.80
2023-05-22T19:23:28.525Z,14.70
2023-05-22T19:25:58.393Z,14.70
2023-05-22T19:28:28.113Z,14.70
2023-05-22T19:30:59.939Z,14.80
2023-05-22T19:33:31.595Z,14.80
2023-05-22T19:36:02.457Z,14.80
2023-05-22T19:38:31.739Z,14.80
2023-05-22T19:41:00.955Z,14.80
2023-05-22T19:43:31.396Z,14.80
2023-05-22T19:46:00.740Z,14.80
2023-05-22T19:48:31.825Z,14.80
2023-05-22T19:51:01.179Z,14.80
2023-05-22T19:53:32.498Z,14.80
2023-05-22T19:56:02.665Z,14.80
2023-05-22T19:58:31.846Z,14.70
2023-05-22T20:01:01.067Z,14.70
2023-05-22T20:03:30.270Z,14.60
2023-05-22T20:05:59.399Z,14.60
2023-05-22T20:08:28.566Z,14.50
2023-05-22T20:10:57.707Z,14.50
2023-05-22T20:13:26.870Z,14.40
2023-05-22T20:15:57.327Z,14.40
2023-05-22T20:18:27.066Z,14.40
2023-05-22T20:20:56.481Z,14.40
2023-05-22T20:23:26.234Z,14.50
2023-05-22T20:25:55.521Z,14.50
2023-05-22T20:28:25.868Z,14.60
2023-05-22T20:30:55.036Z,14.60
2023-05-22T20:33:24.280Z,14.60
2023-05-22T20:35:53.852Z,14.60
2023-05-22T20:38:23.053Z,14.50
2023-05-22T20:40:52.265Z,14.60
2023-05-22T20:43:21.371Z,14.50
2023-05-22T20:45:51.223Z,14.50
2023-05-22T20:48:20.388Z,14.50
2023-05-22T20:50:50.694Z,14.50
2023-05-22T20:53:20.027Z,14.50
2023-05-22T20:55:49.283Z,14.50
2023-05-22T20:58:19.902Z,14.50
2023-05-22T21:00:50.148Z,14.50
2023-05-22T21:03:19.348Z,14.50
2023-05-22T21:05:48.585Z,14.60
2023-05-22T21:08:17.766Z,14.70
2023-05-22T21:10:46.897Z,14.70
2023-05-22T21:13:16.072Z,14.70
2023-05-22T21:15:45.353Z,14.70
2023-05-22T21:18:14.629Z,14.80
2023-05-22T21:20:44.175Z,14.80
2023-05-22T21:23:14.350Z,14.80
2023-05-22T21:25:43.409Z,14.80
2023-05-22T21:28:12.506Z,14.80
2023-05-22T21:30:41.928Z,14.80
2023-05-22T21:33:12.072Z,14.80
2023-05-22T21:35:41.223Z,14.80
2023-05-22T21:38:11.384Z,14.80
2023-05-22T21:40:42.865Z,14.80
2023-05-22T21:43:12.182Z,14.90
2023-05-22T21:45:41.292Z,14.90
2023-05-22T21:48:11.531Z,15.00
2023-05-22T21:50:41.030Z,15.00
2023-05-22T21:53:10.487Z,15.00
2023-05-22T21:55:39.584Z,15.00
2023-05-22T21:58:08.717Z,15.00
2023-05-22T22:00:38.522Z,15.00
2023-05-22T22:03:08.437Z,15.00
2023-05-22T22:05:37.562Z,15.00
2023-05-22T22:08:06.660Z,15.00
2023-05-22T22:10:36.327Z,14.90
2023-05-22T22:13:05.838Z,14.90
2023-05-22T22:15:36.660Z,14.90
2023-05-22T22:18:06.009Z,14.90
2023-05-22T22:20:44.151Z,14.80
2023-05-22T22:23:15.001Z,14.80
2023-05-22T22:25:44.194Z,14.70
2023-05-22T22:28:13.296Z,14.60
2023-05-22T22:30:42.592Z,14.60
2023-05-22T22:33:12.027Z,14.50
2023-05-22T22:35:42.178Z,14.40
2023-05-22T22:38:11.695Z,14.40
2023-05-22T22:40:41.087Z,14.30
2023-05-22T22:43:10.389Z,14.30
2023-05-22T22:45:42.617Z,14.30
2023-05-22T22:48:12.322Z,14.30
2023-05-22T22:50:41.693Z,14.40
2023-05-22T22:53:10.996Z,14.40
2023-05-22T22:55:40.275Z,14.40
2023-05-22T22:58:09.858Z,14.40
2023-05-22T23:00:39.065Z,14.40
2023-05-22T23:03:08.244Z,14.30
2023-05-22T23:05:37.618Z,14.30
2023-05-22T23:08:06.857Z,14.20
2023-05-22T23:10:35.956Z,14.20
2023-05-22T23:13:05.090Z,14.20
2023-05-22T23:15:34.229Z,14.20
2023-05-22T23:18:03.438Z,14.20
2023-05-22T23:20:32.497Z,14.10
2023-05-22T23:23:01.668Z,14.10
2023-05-22T23:25:30.984Z,14.10
2023-05-22T23:28:00.102Z,14.10
2023-05-22T23:30:29.200Z,14.10
2023-05-22T23:32:58.399Z,14.20
2023-05-22T23:35:27.485Z,14.20
2023-05-22T23:37:56.667Z,14.20
2023-05-22T23:40:25.780Z,14.20
2023-05-22T23:42:54.926Z,14.30
2023-05-22T23:45:24.052Z,14.20
2023-05-22T23:47:53.225Z,14.30
2023-05-22T23:50:22.345Z,14.30
2023-05-22T23:52:51.540Z,14.30
2023-05-22T23:55:20.696Z,14.20
2023-05-22T23:57:50.588Z,14.10
